sensor_id;sensor_type;location;lat;lon;timestamp;P1;durP1;ratioP1;P2;durP2;ratioP2
22176;SDS011;11254;50.098;8.726;2023-02-02T00:01:30;6.30;;;1.77;;
22176;SDS011;11254;50.098;8.726;2023-02-02T00:03:59;3.80;;;1.20;;
22176;SDS011;11254;50.098;8.726;2023-02-02T00:06:28;7.75;;;1.40;;
22176;SDS011;11254;50.098;8.726;2023-02-02T00:08:57;4.53;;;1.15;;
22176;SDS011;11254;50.098;8.726;2023-02-02T00:11:26;6.18;;;1.70;;
22176;SDS011;11254;50.098;8.726;2023-02-02T00:13:54;7.68;;;1.38;;
22176;SDS011;11254;50.098;8.726;2023-02-02T00:16:34;4.50;;;1.30;;
22176;SDS011;11254;50.098;8.726;2023-02-02T00:19:03;7.25;;;1.40;;
22176;SDS011;11254;50.098;8.726;2023-02-02T00:21:32;4.85;;;1.20;;
22176;SDS011;11254;50.098;8.726;2023-02-02T00:24:00;3.63;;;1.20;;
22176;SDS011;11254;50.098;8.726;2023-02-02T00:26:28;7.13;;;1.60;;
22176;SDS011;11254;50.098;8.726;2023-02-02T00:28:57;7.60;;;1.30;;
22176;SDS011;11254;50.098;8.726;2023-02-02T00:31:25;11.70;;;1.60;;
22176;SDS011;11254;50.098;8.726;2023-02-02T00:33:55;10.68;;;1.60;;
22176;SDS011;11254;50.098;8.726;2023-02-02T00:36:23;4.55;;;1.17;;
22176;SDS011;11254;50.098;8.726;2023-02-02T00:38:52;7.57;;;1.50;;
22176;SDS011;11254;50.098;8.726;2023-02-02T00:41:21;4.63;;;1.58;;
22176;SDS011;11254;50.098;8.726;2023-02-02T00:43:50;6.15;;;1.83;;
22176;SDS011;11254;50.098;8.726;2023-02-02T00:46:32;5.40;;;1.63;;
22176;SDS011;11254;50.098;8.726;2023-02-02T00:49:02;6.90;;;1.60;;
22176;SDS011;11254;50.098;8.726;2023-02-02T00:51:30;5.90;;;1.58;;
22176;SDS011;11254;50.098;8.726;2023-02-02T00:53:58;6.50;;;1.75;;
22176;SDS011;11254;50.098;8.726;2023-02-02T00:56:27;6.25;;;1.67;;
22176;SDS011;11254;50.098;8.726;2023-02-02T00:58:55;6.28;;;2.00;;
22176;SDS011;11254;50.098;8.726;2023-02-02T01:01:24;9.13;;;1.70;;
22176;SDS011;11254;50.098;8.726;2023-02-02T01:03:52;8.32;;;1.70;;
22176;SDS011;11254;50.098;8.726;2023-02-02T01:06:23;8.32;;;2.10;;
22176;SDS011;11254;50.098;8.726;2023-02-02T01:08:51;8.02;;;2.10;;
22176;SDS011;11254;50.098;8.726;2023-02-02T01:11:20;13.15;;;2.30;;
22176;SDS011;11254;50.098;8.726;2023-02-02T01:13:48;8.77;;;2.15;;
22176;SDS011;11254;50.098;8.726;2023-02-02T01:16:17;7.13;;;1.58;;
22176;SDS011;11254;50.098;8.726;2023-02-02T01:18:47;6.47;;;1.80;;
22176;SDS011;11254;50.098;8.726;2023-02-02T01:21:16;7.72;;;1.90;;
22176;SDS011;11254;50.098;8.726;2023-02-02T01:23:45;10.65;;;1.80;;
22176;SDS011;11254;50.098;8.726;2023-02-02T01:26:14;8.15;;;1.83;;
22176;SDS011;11254;50.098;8.726;2023-02-02T01:28:42;4.60;;;1.70;;
22176;SDS011;11254;50.098;8.726;2023-02-02T01:31:12;5.60;;;2.00;;
22176;SDS011;11254;50.098;8.726;2023-02-02T01:33:41;8.85;;;2.00;;
22176;SDS011;11254;50.098;8.726;2023-02-02T01:36:11;6.50;;;1.80;;
22176;SDS011;11254;50.098;8.726;2023-02-02T01:38:40;6.70;;;1.60;;
22176;SDS011;11254;50.098;8.726;2023-02-02T01:41:11;6.10;;;1.55;;
22176;SDS011;11254;50.098;8.726;2023-02-02T01:43:49;8.82;;;1.73;;
22176;SDS011;11254;50.098;8.726;2023-02-02T01:46:20;5.30;;;1.60;;
22176;SDS011;11254;50.098;8.726;2023-02-02T01:48:50;7.35;;;1.75;;
22176;SDS011;11254;50.098;8.726;2023-02-02T01:51:21;7.55;;;1.58;;
22176;SDS011;11254;50.098;8.726;2023-02-02T01:53:51;3.95;;;1.40;;
22176;SDS011;11254;50.098;8.726;2023-02-02T01:56:23;7.53;;;1.58;;
22176;SDS011;11254;50.098;8.726;2023-02-02T01:58:52;7.30;;;1.77;;
22176;SDS011;11254;50.098;8.726;2023-02-02T02:01:21;4.47;;;1.63;;
22176;SDS011;11254;50.098;8.726;2023-02-02T02:03:49;6.63;;;2.38;;
22176;SDS011;11254;50.098;8.726;2023-02-02T02:06:18;5.78;;;1.55;;
22176;SDS011;11254;50.098;8.726;2023-02-02T02:08:48;9.00;;;1.80;;
22176;SDS011;11254;50.098;8.726;2023-02-02T02:11:19;6.95;;;1.40;;
22176;SDS011;11254;50.098;8.726;2023-02-02T02:13:48;4.95;;;2.10;;
22176;SDS011;11254;50.098;8.726;2023-02-02T02:16:38;5.43;;;1.80;;
22176;SDS011;11254;50.098;8.726;2023-02-02T02:19:13;6.95;;;1.20;;
22176;SDS011;11254;50.098;8.726;2023-02-02T02:21:49;6.90;;;1.90;;
22176;SDS011;11254;50.098;8.726;2023-02-02T02:28:06;7.32;;;1.45;;
22176;SDS011;11254;50.098;8.726;2023-02-02T02:30:53;5.68;;;1.30;;
22176;SDS011;11254;50.098;8.726;2023-02-02T02:33:26;8.63;;;1.50;;
22176;SDS011;11254;50.098;8.726;2023-02-02T02:36:01;8.60;;;1.92;;
22176;SDS011;11254;50.098;8.726;2023-02-02T02:38:33;6.05;;;1.40;;
22176;SDS011;11254;50.098;8.726;2023-02-02T02:41:04;8.73;;;1.65;;
22176;SDS011;11254;50.098;8.726;2023-02-02T02:43:36;4.70;;;1.45;;
22176;SDS011;11254;50.098;8.726;2023-02-02T02:46:07;7.20;;;1.70;;
22176;SDS011;11254;50.098;8.726;2023-02-02T02:48:38;6.65;;;1.35;;
22176;SDS011;11254;50.098;8.726;2023-02-02T02:51:07;7.50;;;1.80;;
22176;SDS011;11254;50.098;8.726;2023-02-02T02:53:36;5.70;;;1.50;;
22176;SDS011;11254;50.098;8.726;2023-02-02T02:56:06;6.00;;;1.70;;
22176;SDS011;11254;50.098;8.726;2023-02-02T02:58:40;7.22;;;1.58;;
22176;SDS011;11254;50.098;8.726;2023-02-02T03:01:12;8.48;;;2.08;;
22176;SDS011;11254;50.098;8.726;2023-02-02T03:03:52;5.80;;;1.60;;
22176;SDS011;11254;50.098;8.726;2023-02-02T03:06:22;6.00;;;1.80;;
22176;SDS011;11254;50.098;8.726;2023-02-02T03:08:57;5.68;;;1.77;;
22176;SDS011;11254;50.098;8.726;2023-02-02T03:11:25;8.05;;;1.95;;
22176;SDS011;11254;50.098;8.726;2023-02-02T03:13:54;8.75;;;1.85;;
22176;SDS011;11254;50.098;8.726;2023-02-02T03:16:22;6.72;;;1.58;;
22176;SDS011;11254;50.098;8.726;2023-02-02T03:18:52;6.95;;;1.88;;
22176;SDS011;11254;50.098;8.726;2023-02-02T03:21:21;3.75;;;1.50;;
22176;SDS011;11254;50.098;8.726;2023-02-02T03:23:49;4.80;;;1.80;;
22176;SDS011;11254;50.098;8.726;2023-02-02T03:26:18;7.65;;;1.90;;
22176;SDS011;11254;50.098;8.726;2023-02-02T03:28:46;7.63;;;2.05;;
22176;SDS011;11254;50.098;8.726;2023-02-02T03:31:15;9.43;;;1.92;;
22176;SDS011;11254;50.098;8.726;2023-02-02T03:33:43;7.10;;;1.88;;
22176;SDS011;11254;50.098;8.726;2023-02-02T03:36:13;7.03;;;1.88;;
22176;SDS011;11254;50.098;8.726;2023-02-02T03:38:41;6.78;;;1.75;;
22176;SDS011;11254;50.098;8.726;2023-02-02T03:41:09;8.55;;;1.73;;
22176;SDS011;11254;50.098;8.726;2023-02-02T03:43:38;10.63;;;1.90;;
22176;SDS011;11254;50.098;8.726;2023-02-02T03:46:06;8.73;;;1.75;;
22176;SDS011;11254;50.098;8.726;2023-02-02T03:48:35;8.43;;;1.60;;
22176;SDS011;11254;50.098;8.726;2023-02-02T03:51:04;5.55;;;1.80;;
22176;SDS011;11254;50.098;8.726;2023-02-02T03:53:34;4.72;;;1.70;;
22176;SDS011;11254;50.098;8.726;2023-02-02T03:56:02;7.75;;;1.60;;
22176;SDS011;11254;50.098;8.726;2023-02-02T03:58:30;7.00;;;1.85;;
22176;SDS011;11254;50.098;8.726;2023-02-02T04:01:01;6.57;;;1.73;;
22176;SDS011;11254;50.098;8.726;2023-02-02T04:03:29;6.38;;;1.73;;
22176;SDS011;11254;50.098;8.726;2023-02-02T04:05:58;9.88;;;1.50;;
22176;SDS011;11254;50.098;8.726;2023-02-02T04:08:26;6.43;;;2.05;;
22176;SDS011;11254;50.098;8.726;2023-02-02T04:10:56;5.70;;;2.00;;
22176;SDS011;11254;50.098;8.726;2023-02-02T04:13:25;8.60;;;2.22;;
22176;SDS011;11254;50.098;8.726;2023-02-02T04:15:57;6.80;;;1.83;;
22176;SDS011;11254;50.098;8.726;2023-02-02T04:18:25;9.82;;;1.83;;
22176;SDS011;11254;50.098;8.726;2023-02-02T04:20:57;8.05;;;2.10;;
22176;SDS011;11254;50.098;8.726;2023-02-02T04:23:26;7.05;;;2.13;;
22176;SDS011;11254;50.098;8.726;2023-02-02T04:25:54;6.43;;;1.63;;
22176;SDS011;11254;50.098;8.726;2023-02-02T04:28:25;6.47;;;1.83;;
22176;SDS011;11254;50.098;8.726;2023-02-02T04:30:54;3.90;;;1.75;;
22176;SDS011;11254;50.098;8.726;2023-02-02T04:33:23;5.55;;;2.22;;
22176;SDS011;11254;50.098;8.726;2023-02-02T04:35:52;10.48;;;1.85;;
22176;SDS011;11254;50.098;8.726;2023-02-02T04:38:20;10.55;;;2.13;;
22176;SDS011;11254;50.098;8.726;2023-02-02T04:40:49;5.93;;;1.63;;
22176;SDS011;11254;50.098;8.726;2023-02-02T04:43:17;5.55;;;1.80;;
22176;SDS011;11254;50.098;8.726;2023-02-02T04:45:47;6.90;;;1.60;;
22176;SDS011;11254;50.098;8.726;2023-02-02T04:48:15;4.95;;;1.77;;
22176;SDS011;11254;50.098;8.726;2023-02-02T04:50:44;7.10;;;1.88;;
22176;SDS011;11254;50.098;8.726;2023-02-02T04:53:12;5.47;;;1.70;;
22176;SDS011;11254;50.098;8.726;2023-02-02T04:55:40;7.03;;;2.13;;
22176;SDS011;11254;50.098;8.726;2023-02-02T04:58:08;5.95;;;1.98;;
22176;SDS011;11254;50.098;8.726;2023-02-02T05:00:37;6.03;;;1.92;;
22176;SDS011;11254;50.098;8.726;2023-02-02T05:03:06;7.32;;;2.03;;
22176;SDS011;11254;50.098;8.726;2023-02-02T05:05:35;7.55;;;2.00;;
22176;SDS011;11254;50.098;8.726;2023-02-02T05:08:03;6.60;;;1.80;;
22176;SDS011;11254;50.098;8.726;2023-02-02T05:10:33;6.93;;;2.00;;
22176;SDS011;11254;50.098;8.726;2023-02-02T05:13:01;10.52;;;2.40;;
22176;SDS011;11254;50.098;8.726;2023-02-02T05:15:30;11.38;;;1.80;;
22176;SDS011;11254;50.098;8.726;2023-02-02T05:17:58;4.60;;;1.77;;
22176;SDS011;11254;50.098;8.726;2023-02-02T05:20:27;8.00;;;2.28;;
22176;SDS011;11254;50.098;8.726;2023-02-02T05:22:56;6.65;;;1.67;;
22176;SDS011;11254;50.098;8.726;2023-02-02T05:25:24;8.32;;;1.92;;
22176;SDS011;11254;50.098;8.726;2023-02-02T05:27:53;5.72;;;1.65;;
22176;SDS011;11254;50.098;8.726;2023-02-02T05:30:21;6.97;;;2.05;;
22176;SDS011;11254;50.098;8.726;2023-02-02T05:32:49;7.07;;;1.88;;
22176;SDS011;11254;50.098;8.726;2023-02-02T05:35:17;7.57;;;1.88;;
22176;SDS011;11254;50.098;8.726;2023-02-02T05:37:47;7.25;;;1.75;;
22176;SDS011;11254;50.098;8.726;2023-02-02T05:40:16;7.07;;;1.67;;
22176;SDS011;11254;50.098;8.726;2023-02-02T05:42:46;9.27;;;2.00;;
22176;SDS011;11254;50.098;8.726;2023-02-02T05:45:14;5.07;;;1.90;;
22176;SDS011;11254;50.098;8.726;2023-02-02T05:47:43;6.22;;;1.67;;
22176;SDS011;11254;50.098;8.726;2023-02-02T05:50:11;8.27;;;2.20;;
22176;SDS011;11254;50.098;8.726;2023-02-02T05:52:39;7.13;;;1.83;;
22176;SDS011;11254;50.098;8.726;2023-02-02T05:55:10;6.50;;;1.85;;
22176;SDS011;11254;50.098;8.726;2023-02-02T05:57:39;5.80;;;1.60;;
22176;SDS011;11254;50.098;8.726;2023-02-02T06:00:08;6.63;;;1.92;;
22176;SDS011;11254;50.098;8.726;2023-02-02T06:02:39;8.63;;;2.00;;
22176;SDS011;11254;50.098;8.726;2023-02-02T06:05:07;6.32;;;1.80;;
22176;SDS011;11254;50.098;8.726;2023-02-02T06:07:36;3.80;;;1.63;;
22176;SDS011;11254;50.098;8.726;2023-02-02T06:10:05;9.68;;;2.25;;
22176;SDS011;11254;50.098;8.726;2023-02-02T06:12:35;6.85;;;1.80;;
22176;SDS011;11254;50.098;8.726;2023-02-02T06:15:03;6.68;;;2.10;;
22176;SDS011;11254;50.098;8.726;2023-02-02T06:17:32;6.78;;;2.13;;
22176;SDS011;11254;50.098;8.726;2023-02-02T06:20:00;6.50;;;1.98;;
22176;SDS011;11254;50.098;8.726;2023-02-02T06:22:28;5.03;;;2.10;;
22176;SDS011;11254;50.098;8.726;2023-02-02T06:24:57;9.43;;;2.10;;
22176;SDS011;11254;50.098;8.726;2023-02-02T06:27:25;7.82;;;1.90;;
22176;SDS011;11254;50.098;8.726;2023-02-02T06:29:55;7.43;;;2.13;;
22176;SDS011;11254;50.098;8.726;2023-02-02T06:32:23;8.15;;;2.22;;
22176;SDS011;11254;50.098;8.726;2023-02-02T06:34:52;10.55;;;2.42;;
22176;SDS011;11254;50.098;8.726;2023-02-02T06:37:20;5.80;;;1.85;;
22176;SDS011;11254;50.098;8.726;2023-02-02T06:39:48;5.22;;;1.98;;
22176;SDS011;11254;50.098;8.726;2023-02-02T06:42:17;6.45;;;2.00;;
22176;SDS011;11254;50.098;8.726;2023-02-02T06:44:47;4.65;;;1.80;;
22176;SDS011;11254;50.098;8.726;2023-02-02T06:47:16;4.32;;;1.70;;
22176;SDS011;11254;50.098;8.726;2023-02-02T06:49:45;7.18;;;2.15;;
22176;SDS011;11254;50.098;8.726;2023-02-02T06:52:13;7.00;;;2.10;;
22176;SDS011;11254;50.098;8.726;2023-02-02T06:54:41;9.50;;;1.65;;
22176;SDS011;11254;50.098;8.726;2023-02-02T06:57:10;6.70;;;1.95;;
22176;SDS011;11254;50.098;8.726;2023-02-02T06:59:38;11.13;;;1.90;;
22176;SDS011;11254;50.098;8.726;2023-02-02T07:02:08;10.70;;;2.88;;
22176;SDS011;11254;50.098;8.726;2023-02-02T07:04:38;10.50;;;3.22;;
22176;SDS011;11254;50.098;8.726;2023-02-02T07:07:06;7.47;;;2.13;;
22176;SDS011;11254;50.098;8.726;2023-02-02T07:09:34;9.70;;;2.42;;
22176;SDS011;11254;50.098;8.726;2023-02-02T07:12:03;8.68;;;2.50;;
22176;SDS011;11254;50.098;8.726;2023-02-02T07:14:31;8.73;;;2.33;;
22176;SDS011;11254;50.098;8.726;2023-02-02T07:16:59;9.50;;;2.03;;
22176;SDS011;11254;50.098;8.726;2023-02-02T07:19:28;8.20;;;1.95;;
22176;SDS011;11254;50.098;8.726;2023-02-02T07:21:57;7.43;;;2.28;;
22176;SDS011;11254;50.098;8.726;2023-02-02T07:24:26;8.35;;;1.92;;
22176;SDS011;11254;50.098;8.726;2023-02-02T07:26:54;6.53;;;1.63;;
22176;SDS011;11254;50.098;8.726;2023-02-02T07:29:23;8.63;;;2.08;;
22176;SDS011;11254;50.098;8.726;2023-02-02T07:31:51;6.15;;;1.77;;
22176;SDS011;11254;50.098;8.726;2023-02-02T07:34:20;7.15;;;2.05;;
22176;SDS011;11254;50.098;8.726;2023-02-02T07:36:48;7.00;;;2.08;;
22176;SDS011;11254;50.098;8.726;2023-02-02T07:39:18;6.55;;;2.00;;
22176;SDS011;11254;50.098;8.726;2023-02-02T07:41:46;5.50;;;2.00;;
22176;SDS011;11254;50.098;8.726;2023-02-02T07:44:27;5.72;;;1.90;;
22176;SDS011;11254;50.098;8.726;2023-02-02T07:46:55;10.95;;;1.98;;
22176;SDS011;11254;50.098;8.726;2023-02-02T07:49:24;7.03;;;1.90;;
22176;SDS011;11254;50.098;8.726;2023-02-02T07:51:52;7.80;;;1.90;;
22176;SDS011;11254;50.098;8.726;2023-02-02T07:54:22;5.95;;;1.85;;
22176;SDS011;11254;50.098;8.726;2023-02-02T07:56:50;6.07;;;2.10;;
22176;SDS011;11254;50.098;8.726;2023-02-02T07:59:19;7.40;;;2.05;;
22176;SDS011;11254;50.098;8.726;2023-02-02T08:01:47;6.72;;;1.50;;
22176;SDS011;11254;50.098;8.726;2023-02-02T08:04:16;10.55;;;2.00;;
22176;SDS011;11254;50.098;8.726;2023-02-02T08:06:45;6.90;;;1.50;;
22176;SDS011;11254;50.098;8.726;2023-02-02T08:09:13;6.38;;;1.55;;
22176;SDS011;11254;50.098;8.726;2023-02-02T08:11:43;5.88;;;1.58;;
22176;SDS011;11254;50.098;8.726;2023-02-02T08:14:11;7.57;;;1.90;;
22176;SDS011;11254;50.098;8.726;2023-02-02T08:16:40;5.05;;;1.55;;
22176;SDS011;11254;50.098;8.726;2023-02-02T08:19:08;8.93;;;1.90;;
22176;SDS011;11254;50.098;8.726;2023-02-02T08:21:40;8.02;;;1.67;;
22176;SDS011;11254;50.098;8.726;2023-02-02T08:24:08;6.63;;;1.70;;
22176;SDS011;11254;50.098;8.726;2023-02-02T08:26:36;5.32;;;1.90;;
22176;SDS011;11254;50.098;8.726;2023-02-02T08:29:06;10.80;;;2.67;;
22176;SDS011;11254;50.098;8.726;2023-02-02T08:31:36;5.18;;;1.80;;
22176;SDS011;11254;50.098;8.726;2023-02-02T08:34:04;7.20;;;2.15;;
22176;SDS011;11254;50.098;8.726;2023-02-02T08:36:33;7.40;;;1.92;;
22176;SDS011;11254;50.098;8.726;2023-02-02T08:39:02;7.57;;;1.77;;
22176;SDS011;11254;50.098;8.726;2023-02-02T08:41:31;10.25;;;2.38;;
22176;SDS011;11254;50.098;8.726;2023-02-02T08:44:04;11.00;;;1.90;;
22176;SDS011;11254;50.098;8.726;2023-02-02T08:46:37;5.07;;;1.95;;
22176;SDS011;11254;50.098;8.726;2023-02-02T08:49:07;7.28;;;1.63;;
22176;SDS011;11254;50.098;8.726;2023-02-02T08:51:37;11.77;;;2.00;;
22176;SDS011;11254;50.098;8.726;2023-02-02T08:54:05;8.75;;;1.73;;
22176;SDS011;11254;50.098;8.726;2023-02-02T08:56:33;6.80;;;2.17;;
22176;SDS011;11254;50.098;8.726;2023-02-02T08:59:03;6.68;;;1.58;;
22176;SDS011;11254;50.098;8.726;2023-02-02T09:01:31;4.82;;;1.88;;
22176;SDS011;11254;50.098;8.726;2023-02-02T09:04:02;6.50;;;1.77;;
22176;SDS011;11254;50.098;8.726;2023-02-02T09:06:31;7.18;;;1.58;;
22176;SDS011;11254;50.098;8.726;2023-02-02T09:08:59;9.07;;;1.88;;
22176;SDS011;11254;50.098;8.726;2023-02-02T09:11:33;8.60;;;1.65;;
22176;SDS011;11254;50.098;8.726;2023-02-02T09:14:11;7.88;;;2.00;;
22176;SDS011;11254;50.098;8.726;2023-02-02T09:16:40;3.13;;;1.17;;
22176;SDS011;11254;50.098;8.726;2023-02-02T09:19:12;10.23;;;1.98;;
22176;SDS011;11254;50.098;8.726;2023-02-02T09:21:44;3.75;;;1.45;;
22176;SDS011;11254;50.098;8.726;2023-02-02T09:24:21;5.05;;;1.40;;
22176;SDS011;11254;50.098;8.726;2023-02-02T09:26:54;7.00;;;1.60;;
22176;SDS011;11254;50.098;8.726;2023-02-02T09:29:23;6.70;;;1.30;;
22176;SDS011;11254;50.098;8.726;2023-02-02T09:31:53;5.50;;;1.45;;
22176;SDS011;11254;50.098;8.726;2023-02-02T09:34:37;10.20;;;1.90;;
22176;SDS011;11254;50.098;8.726;2023-02-02T09:37:19;7.30;;;1.75;;
22176;SDS011;11254;50.098;8.726;2023-02-02T09:39:49;4.05;;;1.30;;
22176;SDS011;11254;50.098;8.726;2023-02-02T09:42:25;5.85;;;1.80;;
22176;SDS011;11254;50.098;8.726;2023-02-02T09:45:06;6.32;;;1.30;;
22176;SDS011;11254;50.098;8.726;2023-02-02T09:53:17;7.60;;;1.40;;
22176;SDS011;11254;50.098;8.726;2023-02-02T09:55:53;5.00;;;1.50;;
22176;SDS011;11254;50.098;8.726;2023-02-02T09:58:24;5.43;;;1.48;;
22176;SDS011;11254;50.098;8.726;2023-02-02T10:01:00;6.63;;;1.58;;
22176;SDS011;11254;50.098;8.726;2023-02-02T10:03:39;7.85;;;1.30;;
22176;SDS011;11254;50.098;8.726;2023-02-02T10:06:20;5.05;;;1.50;;
22176;SDS011;11254;50.098;8.726;2023-02-02T10:08:56;8.57;;;1.70;;
22176;SDS011;11254;50.098;8.726;2023-02-02T10:11:30;6.13;;;1.38;;
22176;SDS011;11254;50.098;8.726;2023-02-02T10:14:05;6.85;;;2.33;;
22176;SDS011;11254;50.098;8.726;2023-02-02T10:16:37;8.65;;;3.35;;
22176;SDS011;11254;50.098;8.726;2023-02-02T10:19:10;7.28;;;2.95;;
22176;SDS011;11254;50.098;8.726;2023-02-02T10:21:42;8.18;;;2.78;;
22176;SDS011;11254;50.098;8.726;2023-02-02T10:24:17;5.53;;;1.52;;
22176;SDS011;11254;50.098;8.726;2023-02-02T10:26:49;5.72;;;2.22;;
22176;SDS011;11254;50.098;8.726;2023-02-02T10:29:25;5.93;;;1.75;;
22176;SDS011;11254;50.098;8.726;2023-02-02T10:32:15;9.00;;;1.90;;
22176;SDS011;11254;50.098;8.726;2023-02-02T10:34:55;3.65;;;1.20;;
22176;SDS011;11254;50.098;8.726;2023-02-02T10:37:39;6.95;;;1.70;;
22176;SDS011;11254;50.098;8.726;2023-02-02T10:40:21;7.95;;;1.65;;
22176;SDS011;11254;50.098;8.726;2023-02-02T10:43:14;8.40;;;1.58;;
22176;SDS011;11254;50.098;8.726;2023-02-02T10:46:13;4.90;;;1.10;;
22176;SDS011;11254;50.098;8.726;2023-02-02T10:48:49;5.93;;;1.38;;
22176;SDS011;11254;50.098;8.726;2023-02-02T10:51:22;5.93;;;1.55;;
22176;SDS011;11254;50.098;8.726;2023-02-02T10:53:52;6.55;;;1.20;;
22176;SDS011;11254;50.098;8.726;2023-02-02T10:56:30;9.80;;;1.48;;
22176;SDS011;11254;50.098;8.726;2023-02-02T10:59:02;5.55;;;1.23;;
22176;SDS011;11254;50.098;8.726;2023-02-02T11:01:37;5.15;;;1.10;;
22176;SDS011;11254;50.098;8.726;2023-02-02T11:04:15;4.35;;;1.48;;
22176;SDS011;11254;50.098;8.726;2023-02-02T11:07:04;6.53;;;1.30;;
22176;SDS011;11254;50.098;8.726;2023-02-02T11:09:37;3.47;;;1.02;;
22176;SDS011;11254;50.098;8.726;2023-02-02T11:12:15;4.10;;;1.00;;
22176;SDS011;11254;50.098;8.726;2023-02-02T11:14:50;3.15;;;0.85;;
22176;SDS011;11254;50.098;8.726;2023-02-02T11:17:21;3.55;;;1.02;;
22176;SDS011;11254;50.098;8.726;2023-02-02T11:19:56;5.72;;;0.95;;
22176;SDS011;11254;50.098;8.726;2023-02-02T11:22:29;2.90;;;1.02;;
22176;SDS011;11254;50.098;8.726;2023-02-02T11:25:00;6.57;;;1.20;;
22176;SDS011;11254;50.098;8.726;2023-02-02T11:27:44;3.03;;;1.00;;
22176;SDS011;11254;50.098;8.726;2023-02-02T11:30:23;7.85;;;1.02;;
22176;SDS011;11254;50.098;8.726;2023-02-02T11:33:19;2.00;;;0.90;;
22176;SDS011;11254;50.098;8.726;2023-02-02T11:35:52;4.15;;;0.95;;
22176;SDS011;11254;50.098;8.726;2023-02-02T11:38:21;2.97;;;0.95;;
22176;SDS011;11254;50.098;8.726;2023-02-02T11:40:57;4.05;;;0.93;;
22176;SDS011;11254;50.098;8.726;2023-02-02T11:43:32;2.85;;;1.00;;
22176;SDS011;11254;50.098;8.726;2023-02-02T11:46:14;4.10;;;0.90;;
22176;SDS011;11254;50.098;8.726;2023-02-02T11:48:46;3.65;;;1.00;;
22176;SDS011;11254;50.098;8.726;2023-02-02T11:51:20;2.83;;;0.98;;
22176;SDS011;11254;50.098;8.726;2023-02-02T11:54:00;2.30;;;0.95;;
22176;SDS011;11254;50.098;8.726;2023-02-02T11:56:33;4.13;;;1.17;;
22176;SDS011;11254;50.098;8.726;2023-02-02T11:59:08;3.60;;;1.02;;
22176;SDS011;11254;50.098;8.726;2023-02-02T12:02:06;3.45;;;1.20;;
22176;SDS011;11254;50.098;8.726;2023-02-02T12:04:41;5.65;;;0.90;;
22176;SDS011;11254;50.098;8.726;2023-02-02T12:07:18;3.70;;;1.13;;
22176;SDS011;11254;50.098;8.726;2023-02-02T12:09:49;4.32;;;1.00;;
22176;SDS011;11254;50.098;8.726;2023-02-02T12:12:27;7.50;;;1.10;;
22176;SDS011;11254;50.098;8.726;2023-02-02T12:15:03;3.40;;;1.30;;
22176;SDS011;11254;50.098;8.726;2023-02-02T12:17:36;3.17;;;1.42;;
22176;SDS011;11254;50.098;8.726;2023-02-02T12:20:14;3.50;;;1.45;;
22176;SDS011;11254;50.098;8.726;2023-02-02T12:22:55;13.30;;;2.20;;
22176;SDS011;11254;50.098;8.726;2023-02-02T12:25:44;5.10;;;1.50;;
22176;SDS011;11254;50.098;8.726;2023-02-02T12:28:26;4.25;;;1.10;;
22176;SDS011;11254;50.098;8.726;2023-02-02T12:31:13;3.10;;;1.38;;
22176;SDS011;11254;50.098;8.726;2023-02-02T12:33:59;5.55;;;1.30;;
22176;SDS011;11254;50.098;8.726;2023-02-02T12:36:37;3.67;;;1.25;;
22176;SDS011;11254;50.098;8.726;2023-02-02T12:39:19;4.32;;;1.80;;
22176;SDS011;11254;50.098;8.726;2023-02-02T12:41:54;4.10;;;1.60;;
22176;SDS011;11254;50.098;8.726;2023-02-02T12:44:35;5.13;;;1.40;;
22176;SDS011;11254;50.098;8.726;2023-02-02T12:47:16;5.13;;;1.50;;
22176;SDS011;11254;50.098;8.726;2023-02-02T12:50:00;3.28;;;1.33;;
22176;SDS011;11254;50.098;8.726;2023-02-02T12:52:48;5.28;;;1.23;;
22176;SDS011;11254;50.098;8.726;2023-02-02T12:55:33;2.08;;;0.90;;
22176;SDS011;11254;50.098;8.726;2023-02-02T12:58:11;3.67;;;1.00;;
22176;SDS011;11254;50.098;8.726;2023-02-02T13:00:47;2.95;;;0.98;;
22176;SDS011;11254;50.098;8.726;2023-02-02T13:03:27;3.63;;;1.08;;
22176;SDS011;11254;50.098;8.726;2023-02-02T13:06:04;4.72;;;2.17;;
22176;SDS011;11254;50.098;8.726;2023-02-02T13:08:39;2.80;;;1.17;;
22176;SDS011;11254;50.098;8.726;2023-02-02T13:11:14;2.30;;;0.98;;
22176;SDS011;11254;50.098;8.726;2023-02-02T13:13:56;3.60;;;1.15;;
22176;SDS011;11254;50.098;8.726;2023-02-02T13:16:27;4.43;;;1.48;;
22176;SDS011;11254;50.098;8.726;2023-02-02T13:19:04;3.72;;;1.15;;
22176;SDS011;11254;50.098;8.726;2023-02-02T13:21:34;2.83;;;1.20;;
22176;SDS011;11254;50.098;8.726;2023-02-02T13:24:09;3.50;;;1.35;;
22176;SDS011;11254;50.098;8.726;2023-02-02T13:26:40;7.25;;;1.80;;
22176;SDS011;11254;50.098;8.726;2023-02-02T13:29:10;9.55;;;1.85;;
22176;SDS011;11254;50.098;8.726;2023-02-02T13:31:44;3.90;;;1.98;;
22176;SDS011;11254;50.098;8.726;2023-02-02T13:34:17;9.25;;;2.00;;
22176;SDS011;11254;50.098;8.726;2023-02-02T13:36:49;4.78;;;1.50;;
22176;SDS011;11254;50.098;8.726;2023-02-02T13:39:18;4.15;;;1.25;;
22176;SDS011;11254;50.098;8.726;2023-02-02T13:41:47;6.53;;;1.60;;
22176;SDS011;11254;50.098;8.726;2023-02-02T13:44:17;6.35;;;1.48;;
22176;SDS011;11254;50.098;8.726;2023-02-02T13:46:48;4.38;;;1.60;;
22176;SDS011;11254;50.098;8.726;2023-02-02T13:49:20;5.05;;;1.23;;
22176;SDS011;11254;50.098;8.726;2023-02-02T13:51:51;5.57;;;1.83;;
22176;SDS011;11254;50.098;8.726;2023-02-02T13:54:31;4.75;;;1.30;;
22176;SDS011;11254;50.098;8.726;2023-02-02T13:57:07;5.43;;;1.67;;
22176;SDS011;11254;50.098;8.726;2023-02-02T13:59:45;5.55;;;1.15;;
22176;SDS011;11254;50.098;8.726;2023-02-02T14:02:17;3.22;;;1.10;;
22176;SDS011;11254;50.098;8.726;2023-02-02T14:04:54;4.57;;;1.50;;
22176;SDS011;11254;50.098;8.726;2023-02-02T14:07:27;2.58;;;0.90;;
22176;SDS011;11254;50.098;8.726;2023-02-02T14:09:58;2.92;;;1.00;;
22176;SDS011;11254;50.098;8.726;2023-02-02T14:12:27;4.20;;;0.90;;
22176;SDS011;11254;50.098;8.726;2023-02-02T14:14:56;4.95;;;1.38;;
22176;SDS011;11254;50.098;8.726;2023-02-02T14:22:57;4.80;;;1.30;;
22176;SDS011;11254;50.098;8.726;2023-02-02T14:31:26;4.45;;;1.50;;
22176;SDS011;11254;50.098;8.726;2023-02-02T14:34:14;5.32;;;1.60;;
22176;SDS011;11254;50.098;8.726;2023-02-02T14:36:48;3.65;;;1.10;;
22176;SDS011;11254;50.098;8.726;2023-02-02T14:39:21;3.40;;;1.20;;
22176;SDS011;11254;50.098;8.726;2023-02-02T14:45:13;3.15;;;1.15;;
22176;SDS011;11254;50.098;8.726;2023-02-02T14:47:46;2.75;;;1.08;;
22176;SDS011;11254;50.098;8.726;2023-02-02T14:50:16;3.90;;;1.20;;
22176;SDS011;11254;50.098;8.726;2023-02-02T14:52:52;3.45;;;1.33;;
22176;SDS011;11254;50.098;8.726;2023-02-02T14:55:24;3.75;;;0.93;;
22176;SDS011;11254;50.098;8.726;2023-02-02T14:57:54;3.03;;;1.35;;
22176;SDS011;11254;50.098;8.726;2023-02-02T15:00:24;2.65;;;1.08;;
22176;SDS011;11254;50.098;8.726;2023-02-02T15:02:53;3.28;;;0.70;;
22176;SDS011;11254;50.098;8.726;2023-02-02T15:05:34;3.55;;;1.13;;
22176;SDS011;11254;50.098;8.726;2023-02-02T15:08:06;3.97;;;1.33;;
22176;SDS011;11254;50.098;8.726;2023-02-02T15:13:57;3.17;;;1.17;;
22176;SDS011;11254;50.098;8.726;2023-02-02T15:16:32;2.88;;;1.30;;
22176;SDS011;11254;50.098;8.726;2023-02-02T15:19:04;2.55;;;1.00;;
22176;SDS011;11254;50.098;8.726;2023-02-02T15:21:35;2.90;;;1.00;;
22176;SDS011;11254;50.098;8.726;2023-02-02T15:24:05;2.72;;;1.00;;
22176;SDS011;11254;50.098;8.726;2023-02-02T15:26:36;6.82;;;1.00;;
22176;SDS011;11254;50.098;8.726;2023-02-02T15:29:15;3.83;;;1.00;;
22176;SDS011;11254;50.098;8.726;2023-02-02T15:31:45;4.05;;;1.10;;
22176;SDS011;11254;50.098;8.726;2023-02-02T15:34:16;3.60;;;1.23;;
22176;SDS011;11254;50.098;8.726;2023-02-02T15:36:47;3.17;;;1.10;;
22176;SDS011;11254;50.098;8.726;2023-02-02T15:39:19;3.80;;;0.93;;
22176;SDS011;11254;50.098;8.726;2023-02-02T15:41:51;4.00;;;1.10;;
22176;SDS011;11254;50.098;8.726;2023-02-02T15:44:43;4.63;;;1.10;;